createdAt,value
2017-09-24T00:00:09.793Z,21.47
2017-09-24T00:01:09.805Z,21.52
2017-09-24T00:02:09.784Z,21.44
2017-09-24T00:03:09.791Z,21.49
2017-09-24T00:04:09.799Z,21.52
2017-09-24T00:05:09.771Z,21.52
2017-09-24T00:06:09.790Z,21.49
2017-09-24T00:07:09.772Z,21.50
2017-09-24T00:08:09.756Z,21.46
2017-09-24T00:09:09.962Z,21.47
2017-09-24T00:10:09.745Z,21.50
2017-09-24T00:11:09.752Z,21.47
2017-09-24T00:12:09.736Z,21.49
2017-09-24T00:13:09.734Z,21.53
2017-09-24T00:14:09.744Z,21.50
2017-09-24T00:15:10.075Z,21.52
2017-09-24T00:16:09.726Z,21.47
2017-09-24T00:17:09.706Z,21.50
2017-09-24T00:18:09.706Z,21.43
2017-09-24T00:19:09.702Z,21.46
2017-09-24T00:20:09.712Z,21.46
2017-09-24T00:21:10.141Z,21.43
2017-09-24T00:22:09.699Z,21.34
2017-09-24T00:23:09.691Z,21.50
2017-09-24T00:24:09.684Z,21.44
2017-09-24T00:25:09.678Z,21.46
2017-09-24T00:26:09.675Z,21.46
2017-09-24T00:27:09.963Z,21.47
2017-09-24T00:28:09.664Z,21.44
2017-09-24T00:29:09.659Z,21.42
2017-09-24T00:30:09.658Z,21.38
2017-09-24T00:31:09.652Z,21.46
2017-09-24T00:32:09.650Z,21.50
2017-09-24T00:33:09.938Z,21.46
2017-09-24T00:34:09.633Z,21.50
2017-09-24T00:35:09.631Z,21.49
2017-09-24T00:36:09.624Z,21.46
2017-09-24T00:37:09.622Z,21.53
2017-09-24T00:38:09.617Z,21.47
2017-09-24T00:39:09.823Z,21.50
2017-09-24T00:40:09.610Z,21.56
2017-09-24T00:41:09.601Z,21.43
2017-09-24T00:42:09.593Z,21.40
2017-09-24T00:43:09.593Z,21.46
2017-09-24T00:44:09.585Z,21.46
2017-09-24T00:45:09.613Z,21.40
2017-09-24T00:46:09.577Z,21.38
2017-09-24T00:47:09.569Z,21.37
2017-09-24T00:48:09.568Z,21.35
2017-09-24T00:49:09.591Z,21.35
2017-09-24T00:50:09.555Z,21.42
2017-09-24T00:51:09.581Z,21.43
2017-09-24T00:52:09.545Z,21.46
2017-09-24T00:53:09.540Z,21.37
2017-09-24T00:54:09.918Z,21.34
2017-09-24T00:55:09.530Z,21.46
2017-09-24T00:56:09.526Z,21.46
2017-09-24T00:57:09.527Z,21.29
2017-09-24T00:58:09.512Z,21.50
2017-09-24T00:59:09.511Z,21.46
2017-09-24T01:00:09.892Z,21.34
2017-09-24T01:01:09.503Z,21.31
2017-09-24T01:02:09.501Z,21.46
2017-09-24T01:03:09.508Z,21.46
2017-09-24T01:04:09.486Z,21.43
2017-09-24T01:05:09.487Z,21.43
2017-09-24T01:06:09.769Z,21.42
2017-09-24T01:07:09.476Z,21.46
2017-09-24T01:08:09.466Z,21.34
2017-09-24T01:09:09.468Z,21.40
2017-09-24T01:10:09.461Z,21.42
2017-09-24T01:11:09.448Z,21.35
2017-09-24T01:12:09.889Z,21.38
2017-09-24T01:13:09.441Z,21.29
2017-09-24T01:14:09.438Z,21.34
2017-09-24T01:15:09.439Z,21.34
2017-09-24T01:16:09.423Z,21.34
2017-09-24T01:17:09.421Z,21.35
2017-09-24T01:18:09.457Z,21.35
2017-09-24T01:19:09.415Z,21.38
2017-09-24T01:20:09.409Z,21.38
2017-09-24T01:21:09.843Z,21.37
2017-09-24T01:22:09.398Z,21.31
2017-09-24T01:23:09.391Z,21.32
2017-09-24T01:24:09.389Z,21.29
2017-09-24T01:25:09.381Z,21.40
2017-09-24T01:26:09.379Z,21.34
2017-09-24T01:27:09.758Z,21.37
2017-09-24T01:28:09.367Z,21.31
2017-09-24T01:29:09.357Z,21.42
2017-09-24T01:30:09.358Z,21.31
2017-09-24T01:31:09.352Z,21.40
2017-09-24T01:32:09.351Z,21.35
2017-09-24T01:33:09.647Z,21.35
2017-09-24T01:34:09.343Z,21.34
2017-09-24T01:35:09.330Z,21.31
2017-09-24T01:36:09.330Z,21.34
2017-09-24T01:37:09.325Z,21.38
2017-09-24T01:38:09.320Z,21.34
2017-09-24T01:39:09.615Z,21.37
2017-09-24T01:40:09.309Z,21.32
2017-09-24T01:41:09.308Z,21.19
2017-09-24T01:42:09.301Z,21.38
2017-09-24T01:43:09.293Z,21.37
2017-09-24T01:44:09.292Z,21.37
2017-09-24T01:45:09.316Z,21.40
2017-09-24T01:46:09.278Z,21.31
2017-09-24T01:47:09.269Z,21.38
2017-09-24T01:48:09.268Z,21.27
2017-09-24T01:49:09.701Z,21.35
2017-09-24T01:50:09.258Z,21.37
2017-09-24T01:51:09.257Z,21.37
2017-09-24T01:52:09.249Z,21.35
2017-09-24T01:53:09.244Z,21.31
2017-09-24T01:54:09.239Z,21.35
2017-09-24T01:55:09.603Z,21.32
2017-09-24T01:56:09.229Z,21.31
2017-09-24T01:57:09.222Z,21.32
2017-09-24T01:58:09.219Z,21.24
2017-09-24T01:59:09.212Z,21.34
2017-09-24T02:00:09.208Z,21.28
2017-09-24T02:01:09.236Z,21.35
2017-09-24T02:02:09.200Z,21.38
2017-09-24T02:03:09.200Z,21.22
2017-09-24T02:04:09.186Z,21.22
2017-09-24T02:05:09.189Z,21.29
2017-09-24T02:06:09.208Z,21.27
2017-09-24T02:07:09.173Z,21.34
2017-09-24T02:08:09.173Z,21.19
2017-09-24T02:09:09.162Z,21.31
2017-09-24T02:10:30.170Z,21.28
2017-09-24T02:11:09.577Z,21.29
2017-09-24T02:12:09.151Z,21.35
2017-09-24T02:13:09.149Z,21.27
2017-09-24T02:14:09.145Z,21.32
2017-09-24T02:15:09.140Z,21.27
2017-09-24T02:16:09.129Z,21.29
2017-09-24T02:17:09.355Z,21.25
2017-09-24T02:18:09.119Z,21.27
2017-09-24T02:19:09.109Z,21.31
2017-09-24T02:20:09.110Z,21.29
2017-09-24T02:21:09.100Z,21.27
2017-09-24T02:22:09.093Z,21.29
2017-09-24T02:23:09.452Z,21.37
2017-09-24T02:24:09.093Z,21.29
2017-09-24T02:25:09.082Z,21.22
2017-09-24T02:26:09.079Z,21.21
2017-09-24T02:27:09.070Z,21.38
2017-09-24T02:28:09.069Z,21.28
2017-09-24T02:29:09.441Z,21.19
2017-09-24T02:30:09.060Z,21.28
2017-09-24T02:31:09.049Z,21.25
2017-09-24T02:32:09.050Z,21.32
2017-09-24T02:33:09.046Z,21.31
2017-09-24T02:34:09.034Z,21.28
2017-09-24T02:35:09.249Z,21.28
2017-09-24T02:36:09.029Z,21.27
2017-09-24T02:37:09.027Z,21.28
2017-09-24T02:38:09.013Z,21.25
2017-09-24T02:39:09.011Z,21.25
2017-09-24T02:40:09.006Z,21.14
2017-09-24T02:41:09.218Z,21.29
2017-09-24T02:42:08.996Z,21.24
2017-09-24T02:43:08.988Z,21.25
2017-09-24T02:44:08.985Z,21.22
2017-09-24T02:45:08.981Z,21.29
2017-09-24T02:46:08.978Z,21.21
2017-09-24T02:47:09.180Z,21.21
2017-09-24T02:48:08.968Z,21.25
2017-09-24T02:49:08.963Z,21.19
2017-09-24T02:50:08.964Z,21.29
2017-09-24T02:51:08.964Z,21.24
2017-09-24T02:52:08.946Z,21.24
2017-09-24T02:53:09.287Z,21.25
2017-09-24T02:54:08.934Z,21.27
2017-09-24T02:55:08.931Z,21.21
2017-09-24T02:56:08.926Z,21.24
2017-09-24T02:57:08.917Z,21.31
2017-09-24T02:58:08.916Z,21.25
2017-09-24T02:59:08.946Z,21.29
2017-09-24T03:00:08.905Z,21.24
2017-09-24T03:01:08.900Z,21.27
2017-09-24T03:02:08.896Z,21.25
2017-09-24T03:03:08.896Z,21.28
2017-09-24T03:04:09.274Z,21.19
2017-09-24T03:05:08.885Z,21.25
2017-09-24T03:06:08.884Z,21.21
2017-09-24T03:07:08.868Z,21.24
2017-09-24T03:08:08.865Z,21.17
2017-09-24T03:09:08.854Z,21.17
2017-09-24T03:10:09.072Z,21.25
2017-09-24T03:11:08.848Z,21.17
2017-09-24T03:12:08.843Z,21.24
2017-09-24T03:13:08.840Z,21.24
2017-09-24T03:14:08.837Z,21.22
2017-09-24T03:15:08.839Z,21.14
2017-09-24T03:16:09.037Z,21.17
2017-09-24T03:17:08.823Z,21.12
2017-09-24T03:18:08.814Z,21.24
2017-09-24T03:19:08.814Z,21.24
2017-09-24T03:20:08.804Z,21.14
2017-09-24T03:21:08.801Z,21.22
2017-09-24T03:22:09.192Z,21.25
2017-09-24T03:23:08.788Z,21.19
2017-09-24T03:24:08.787Z,21.17
2017-09-24T03:25:08.776Z,21.14
2017-09-24T03:26:08.773Z,21.16
2017-09-24T03:27:08.767Z,21.17
2017-09-24T03:28:08.988Z,21.16
2017-09-24T03:29:08.760Z,21.22
2017-09-24T03:30:08.753Z,21.25
2017-09-24T03:31:08.746Z,21.16
2017-09-24T03:32:08.741Z,21.21
2017-09-24T03:33:08.744Z,21.17
2017-09-24T03:34:09.050Z,21.13
2017-09-24T03:35:08.729Z,21.14
2017-09-24T03:36:08.724Z,21.14
2017-09-24T03:37:08.721Z,21.19
2017-09-24T03:38:08.713Z,21.17
2017-09-24T03:39:08.708Z,21.12
2017-09-24T03:40:08.736Z,21.22
2017-09-24T03:41:08.732Z,21.17
2017-09-24T03:42:08.690Z,21.14
2017-09-24T03:43:08.689Z,21.12
2017-09-24T03:44:08.678Z,21.16
2017-09-24T03:45:08.687Z,21.19
2017-09-24T03:46:08.714Z,21.13
2017-09-24T03:47:08.677Z,21.19
2017-09-24T03:48:08.660Z,21.14
2017-09-24T03:49:08.656Z,21.16
2017-09-24T03:50:08.655Z,21.14
2017-09-24T03:51:08.658Z,21.21
2017-09-24T03:52:08.957Z,21.14
2017-09-24T03:53:08.634Z,21.13
2017-09-24T03:54:08.634Z,21.13
2017-09-24T03:55:08.620Z,21.13
2017-09-24T03:56:08.619Z,21.12
2017-09-24T03:57:08.612Z,21.14
2017-09-24T03:58:08.966Z,21.16
2017-09-24T03:59:08.603Z,21.14
2017-09-24T04:00:08.609Z,21.17
2017-09-24T04:01:08.593Z,21.13
2017-09-24T04:02:08.593Z,21.14
2017-09-24T04:03:08.584Z,21.17
2017-09-24T04:04:08.605Z,21.17
2017-09-24T04:05:08.571Z,21.17
2017-09-24T04:06:08.570Z,21.10
2017-09-24T04:07:08.562Z,21.22
2017-09-24T04:08:08.558Z,21.13
2017-09-24T04:09:08.576Z,21.13
2017-09-24T04:10:08.548Z,21.12
2017-09-24T04:11:08.541Z,21.03
2017-09-24T04:12:08.538Z,21.13
2017-09-24T04:13:08.561Z,21.16
2017-09-24T04:14:08.939Z,21.17
2017-09-24T04:15:08.519Z,21.12
2017-09-24T04:16:08.516Z,21.16
2017-09-24T04:17:08.514Z,21.16
2017-09-24T04:18:08.509Z,21.09
2017-09-24T04:19:08.500Z,21.10
2017-09-24T04:20:08.527Z,21.03
2017-09-24T04:21:08.490Z,21.17
2017-09-24T04:22:08.485Z,21.19
2017-09-24T04:23:08.484Z,21.10
2017-09-24T04:24:08.473Z,21.10
2017-09-24T04:25:08.504Z,21.12
2017-09-24T04:26:08.465Z,21.09
2017-09-24T04:27:08.466Z,21.04
2017-09-24T04:28:08.456Z,21.09
2017-09-24T04:29:08.451Z,21.06
2017-09-24T04:30:08.834Z,21.10
2017-09-24T04:31:08.441Z,21.06
2017-09-24T04:32:08.431Z,21.09
2017-09-24T04:33:08.430Z,21.03
2017-09-24T04:34:08.428Z,21.12
2017-09-24T04:35:08.425Z,21.14
2017-09-24T04:36:08.775Z,21.12
2017-09-24T04:37:08.410Z,21.07
2017-09-24T04:38:08.401Z,21.07
2017-09-24T04:39:08.394Z,21.09
2017-09-24T04:40:08.391Z,21.09
2017-09-24T04:41:08.392Z,21.13
2017-09-24T04:42:08.813Z,21.10
2017-09-24T04:43:08.379Z,21.09
2017-09-24T04:44:08.371Z,21.10
2017-09-24T04:45:08.366Z,21.06
2017-09-24T04:46:08.358Z,21.07
2017-09-24T04:47:08.362Z,21.12
2017-09-24T04:48:08.787Z,21.04
2017-09-24T04:49:08.345Z,21.12
2017-09-24T04:50:08.339Z,21.04
2017-09-24T04:51:08.335Z,21.12
2017-09-24T04:52:08.332Z,21.12
2017-09-24T04:53:08.324Z,21.13
2017-09-24T04:54:08.351Z,21.07
2017-09-24T04:55:08.315Z,21.09
2017-09-24T04:56:08.309Z,21.09
2017-09-24T04:57:08.304Z,21.03
2017-09-24T04:58:08.334Z,20.99
2017-09-24T04:59:08.297Z,21.09
2017-09-24T05:00:08.290Z,21.13
2017-09-24T05:01:08.285Z,21.03
2017-09-24T05:02:08.288Z,20.99
2017-09-24T05:03:08.654Z,21.04
2017-09-24T05:04:08.273Z,21.09
2017-09-24T05:05:08.262Z,21.06
2017-09-24T05:06:08.252Z,21.09
2017-09-24T05:07:08.255Z,21.04
2017-09-24T05:08:08.248Z,21.09
2017-09-24T05:09:08.269Z,21.10
2017-09-24T05:10:08.242Z,20.99
2017-09-24T05:11:08.295Z,21.06
2017-09-24T05:12:08.228Z,21.09
2017-09-24T05:13:08.450Z,21.09
2017-09-24T05:14:08.218Z,21.10
2017-09-24T05:15:08.211Z,21.04
2017-09-24T05:16:08.203Z,20.98
2017-09-24T05:17:08.204Z,21.06
2017-09-24T05:18:08.192Z,21.04
2017-09-24T05:19:08.445Z,21.14
2017-09-24T05:20:08.181Z,21.07
2017-09-24T05:21:08.182Z,21.03
2017-09-24T05:22:08.173Z,21.01
2017-09-24T05:23:08.169Z,21.04
2017-09-24T05:24:08.161Z,20.97
2017-09-24T05:25:08.383Z,21.01
2017-09-24T05:26:08.152Z,21.06
2017-09-24T05:27:08.145Z,21.09
2017-09-24T05:28:08.138Z,21.04
2017-09-24T05:29:08.138Z,21.04
2017-09-24T05:30:08.140Z,20.97
2017-09-24T05:31:08.155Z,20.94
2017-09-24T05:32:08.114Z,21.04
2017-09-24T05:33:08.262Z,20.94
2017-09-24T05:34:08.109Z,20.98
2017-09-24T05:35:08.107Z,20.97
2017-09-24T05:36:08.101Z,20.99
2017-09-24T05:37:08.100Z,20.99
2017-09-24T05:38:08.088Z,20.98
2017-09-24T05:39:08.461Z,20.97
2017-09-24T05:40:08.081Z,21.03
2017-09-24T05:41:08.072Z,20.99
2017-09-24T05:42:08.074Z,20.99
2017-09-24T05:43:08.069Z,20.95
2017-09-24T05:44:08.061Z,21.01
2017-09-24T05:45:08.077Z,20.97
2017-09-24T05:46:08.050Z,20.95
2017-09-24T05:47:08.045Z,21.03
2017-09-24T05:48:08.044Z,20.99
2017-09-24T05:49:08.075Z,20.98
2017-09-24T05:50:08.027Z,21.06
2017-09-24T05:51:08.019Z,20.97
2017-09-24T05:52:08.030Z,20.97
2017-09-24T05:53:08.008Z,20.97
2017-09-24T05:54:08.214Z,20.95
2017-09-24T05:55:07.999Z,20.98
2017-09-24T05:56:08.005Z,20.95
2017-09-24T05:57:07.992Z,20.99
2017-09-24T05:58:07.989Z,20.92
2017-09-24T05:59:07.984Z,20.92
2017-09-24T06:00:08.597Z,20.95
2017-09-24T06:01:07.971Z,21.03
2017-09-24T06:02:07.965Z,20.99
2017-09-24T06:03:07.955Z,21.03
2017-09-24T06:04:07.953Z,20.91
2017-09-24T06:05:07.946Z,20.94
2017-09-24T06:06:07.974Z,20.94
2017-09-24T06:07:07.940Z,20.94
2017-09-24T06:08:07.931Z,20.95
2017-09-24T06:09:07.929Z,20.99
2017-09-24T06:10:08.150Z,21.01
2017-09-24T06:11:07.929Z,20.99
2017-09-24T06:12:07.912Z,20.98
2017-09-24T06:13:07.907Z,20.99
2017-09-24T06:14:07.902Z,20.98
2017-09-24T06:15:07.898Z,20.94
2017-09-24T06:16:07.922Z,20.99
2017-09-24T06:17:07.890Z,20.99
2017-09-24T06:18:07.875Z,20.95
2017-09-24T06:19:07.874Z,20.95
2017-09-24T06:20:07.870Z,21.04
2017-09-24T06:21:08.329Z,20.98
2017-09-24T06:22:07.855Z,20.98
2017-09-24T06:23:07.861Z,20.97
2017-09-24T06:24:07.850Z,20.98
2017-09-24T06:25:07.841Z,20.91
2017-09-24T06:26:07.839Z,20.94
2017-09-24T06:27:08.052Z,20.99
2017-09-24T06:28:07.827Z,20.94
2017-09-24T06:29:07.830Z,20.84
2017-09-24T06:30:07.819Z,20.91
2017-09-24T06:31:07.812Z,20.94
2017-09-24T06:32:07.804Z,20.95
2017-09-24T06:33:08.188Z,20.97
2017-09-24T06:34:07.804Z,21.04
2017-09-24T06:35:07.797Z,20.92
2017-09-24T06:36:07.782Z,20.89
2017-09-24T06:37:07.774Z,20.95
2017-09-24T06:38:07.779Z,20.97
2017-09-24T06:39:08.226Z,20.97
2017-09-24T06:40:07.763Z,20.94
2017-09-24T06:41:07.759Z,20.97
2017-09-24T06:42:07.756Z,20.88
2017-09-24T06:43:07.747Z,20.94
2017-09-24T06:44:07.742Z,20.91
2017-09-24T06:45:07.759Z,20.92
2017-09-24T06:46:07.737Z,20.97
2017-09-24T06:47:07.727Z,20.97
2017-09-24T06:48:08.038Z,20.94
2017-09-24T06:49:07.714Z,20.94
2017-09-24T06:50:07.709Z,20.92
2017-09-24T06:51:07.706Z,20.98
2017-09-24T06:52:07.701Z,20.97
2017-09-24T06:53:07.691Z,20.95
2017-09-24T06:54:08.081Z,20.95
2017-09-24T06:55:07.686Z,20.97
2017-09-24T06:56:07.684Z,20.92
2017-09-24T06:57:07.670Z,20.87
2017-09-24T06:58:07.667Z,20.94
2017-09-24T06:59:07.659Z,20.95
2017-09-24T07:00:07.684Z,20.97
2017-09-24T07:01:07.652Z,20.92
2017-09-24T07:02:07.645Z,20.88
2017-09-24T07:03:07.650Z,20.99
2017-09-24T07:04:08.077Z,20.91
2017-09-24T07:05:07.630Z,20.88
2017-09-24T07:06:07.630Z,20.88
2017-09-24T07:07:07.624Z,20.92
2017-09-24T07:08:07.614Z,20.99
2017-09-24T07:09:07.611Z,20.97
2017-09-24T07:10:07.998Z,20.98
2017-09-24T07:11:07.601Z,20.92
2017-09-24T07:12:07.599Z,20.97
2017-09-24T07:13:07.595Z,20.89
2017-09-24T07:14:07.579Z,20.92
2017-09-24T07:15:07.575Z,20.98
2017-09-24T07:16:07.954Z,20.99
2017-09-24T07:17:07.564Z,20.94
2017-09-24T07:18:07.560Z,20.98
2017-09-24T07:19:07.558Z,20.92
2017-09-24T07:20:07.550Z,20.89
2017-09-24T07:21:07.549Z,20.91
2017-09-24T07:22:07.846Z,20.95
2017-09-24T07:23:07.535Z,20.95
2017-09-24T07:24:07.531Z,20.85
2017-09-24T07:25:07.527Z,20.95
2017-09-24T07:26:07.525Z,20.88
2017-09-24T07:27:07.510Z,20.97
2017-09-24T07:28:07.967Z,20.94
2017-09-24T07:29:07.504Z,20.88
2017-09-24T07:30:07.497Z,20.88
2017-09-24T07:31:07.492Z,20.89
2017-09-24T07:32:07.487Z,20.97
2017-09-24T07:33:07.481Z,20.88
2017-09-24T07:34:07.858Z,20.94
2017-09-24T07:35:07.470Z,20.89
2017-09-24T07:36:07.471Z,20.89
2017-09-24T07:37:07.460Z,20.94
2017-09-24T07:38:07.463Z,20.95
2017-09-24T07:39:07.451Z,20.94
2017-09-24T07:40:07.895Z,20.95
2017-09-24T07:41:07.438Z,21.01
2017-09-24T07:42:07.440Z,20.98
2017-09-24T07:43:07.429Z,20.97
2017-09-24T07:44:07.423Z,20.95
2017-09-24T07:45:07.418Z,20.95
2017-09-24T07:46:07.451Z,20.91
2017-09-24T07:47:07.410Z,20.95
2017-09-24T07:48:07.407Z,20.95
2017-09-24T07:49:07.397Z,20.91
2017-09-24T07:50:07.393Z,20.92
2017-09-24T07:51:07.766Z,20.94
2017-09-24T07:52:07.386Z,20.94
2017-09-24T07:53:07.381Z,20.99
2017-09-24T07:54:07.368Z,20.98
2017-09-24T07:55:07.367Z,20.92
2017-09-24T07:56:07.360Z,20.99
2017-09-24T07:57:07.717Z,20.97
2017-09-24T07:58:07.347Z,20.95
2017-09-24T07:59:07.349Z,20.95
2017-09-24T08:00:07.337Z,20.98
2017-09-24T08:01:07.338Z,20.95
2017-09-24T08:02:07.331Z,20.95
2017-09-24T08:03:07.353Z,20.99
2017-09-24T08:04:07.313Z,20.98
2017-09-24T08:05:07.311Z,20.98
2017-09-24T08:06:07.303Z,20.94
2017-09-24T08:07:07.303Z,20.97
2017-09-24T08:08:07.656Z,20.97
2017-09-24T08:09:07.292Z,20.89
2017-09-24T08:10:07.282Z,20.97
2017-09-24T08:11:07.281Z,20.97
2017-09-24T08:12:07.273Z,20.92
2017-09-24T08:13:07.271Z,20.94
2017-09-24T08:14:07.615Z,20.97
2017-09-24T08:15:07.265Z,20.98
2017-09-24T08:16:07.253Z,20.94
2017-09-24T08:17:07.246Z,20.98
2017-09-24T08:18:07.242Z,20.99
2017-09-24T08:19:07.239Z,20.97
2017-09-24T08:20:07.453Z,21.03
2017-09-24T08:21:07.232Z,20.88
2017-09-24T08:22:07.222Z,20.94
2017-09-24T08:23:07.213Z,20.94
2017-09-24T08:24:07.212Z,20.94
2017-09-24T08:25:07.205Z,20.99
2017-09-24T08:26:07.239Z,20.92
2017-09-24T08:27:07.197Z,20.97
2017-09-24T08:28:07.189Z,20.98
2017-09-24T08:29:07.185Z,20.99
2017-09-24T08:30:07.188Z,21.01
2017-09-24T08:31:07.466Z,20.98
2017-09-24T08:32:07.171Z,20.99
2017-09-24T08:33:07.162Z,20.94
2017-09-24T08:34:07.160Z,20.94
2017-09-24T08:35:07.148Z,20.91
2017-09-24T08:36:07.144Z,21.03
2017-09-24T08:37:07.362Z,20.95
2017-09-24T08:38:07.139Z,21.01
2017-09-24T08:39:07.129Z,20.97
2017-09-24T08:40:07.121Z,20.97
2017-09-24T08:41:07.121Z,21.01
2017-09-24T08:42:07.116Z,20.94
2017-09-24T08:43:07.136Z,21.07
2017-09-24T08:44:07.142Z,20.99
2017-09-24T08:45:07.096Z,20.97
2017-09-24T08:46:07.097Z,20.99
2017-09-24T08:47:07.091Z,20.91
2017-09-24T08:48:07.310Z,20.97
2017-09-24T08:49:07.081Z,20.97
2017-09-24T08:50:07.072Z,20.95
2017-09-24T08:51:07.065Z,20.95
2017-09-24T08:52:07.058Z,21.01
2017-09-24T08:53:07.062Z,20.92
2017-09-24T08:54:07.075Z,20.98
2017-09-24T08:55:07.055Z,21.03
2017-09-24T08:56:07.340Z,20.94
2017-09-24T08:57:07.036Z,20.94
2017-09-24T08:58:07.029Z,20.99
2017-09-24T08:59:07.027Z,21.01
2017-09-24T09:00:07.019Z,21.06
2017-09-24T09:01:07.020Z,20.99
2017-09-24T09:02:07.033Z,20.92
2017-09-24T09:03:07.010Z,21.09
2017-09-24T09:04:06.994Z,20.97
2017-09-24T09:05:06.998Z,20.94
2017-09-24T09:06:06.993Z,21.03
2017-09-24T09:07:07.285Z,20.89
2017-09-24T09:08:06.976Z,20.95
2017-09-24T09:09:06.973Z,20.94
2017-09-24T09:10:06.963Z,20.95
2017-09-24T09:11:06.969Z,20.98
2017-09-24T09:12:06.961Z,20.97
2017-09-24T09:13:07.338Z,20.95
2017-09-24T09:14:06.947Z,20.95
2017-09-24T09:15:06.939Z,20.88
2017-09-24T09:16:06.942Z,21.04
2017-09-24T09:17:06.931Z,20.87
2017-09-24T09:18:06.924Z,21.01
2017-09-24T09:19:06.946Z,21.04
2017-09-24T09:20:06.919Z,20.92
2017-09-24T09:21:06.908Z,21.01
2017-09-24T09:22:06.904Z,20.95
2017-09-24T09:23:06.904Z,20.97
2017-09-24T09:24:06.934Z,20.98
2017-09-24T09:25:06.884Z,20.94
2017-09-24T09:26:06.884Z,20.97
2017-09-24T09:27:06.875Z,21.06
2017-09-24T09:28:06.871Z,21.04
2017-09-24T09:29:07.080Z,20.98
2017-09-24T09:30:06.863Z,21.01
2017-09-24T09:31:06.861Z,20.99
2017-09-24T09:32:06.853Z,20.98
2017-09-24T09:33:06.845Z,20.97
2017-09-24T09:34:06.841Z,20.97
2017-09-24T09:35:07.123Z,20.98
2017-09-24T09:36:06.838Z,21.03
2017-09-24T09:37:06.826Z,21.06
2017-09-24T09:38:06.818Z,21.07
2017-09-24T09:39:06.815Z,21.06
2017-09-24T09:40:06.810Z,20.99
2017-09-24T09:41:07.205Z,20.97
2017-09-24T09:42:06.798Z,20.98
2017-09-24T09:43:06.794Z,21.12
2017-09-24T09:44:06.784Z,21.04
2017-09-24T09:45:06.783Z,21.01
2017-09-24T09:46:06.779Z,20.98
2017-09-24T09:47:07.074Z,21.10
2017-09-24T09:48:06.767Z,20.98
2017-09-24T09:49:06.766Z,21.06
2017-09-24T09:50:06.754Z,21.01
2017-09-24T09:51:06.748Z,21.03
2017-09-24T09:52:06.741Z,21.03
2017-09-24T09:53:07.129Z,21.03
2017-09-24T09:54:06.738Z,21.03
2017-09-24T09:55:06.738Z,21.07
2017-09-24T09:56:06.727Z,21.09
2017-09-24T09:57:06.716Z,21.03
2017-09-24T09:58:06.719Z,21.12
2017-09-24T09:59:06.738Z,21.03
2017-09-24T10:00:06.698Z,20.99
2017-09-24T10:01:06.699Z,21.14
2017-09-24T10:02:06.695Z,21.10
2017-09-24T10:03:07.006Z,21.04
2017-09-24T10:04:06.682Z,21.09
2017-09-24T10:05:06.671Z,21.07
2017-09-24T10:06:06.670Z,21.04
2017-09-24T10:07:06.666Z,21.03
2017-09-24T10:08:06.664Z,21.04
2017-09-24T10:09:06.862Z,21.10
2017-09-24T10:10:06.651Z,21.09
2017-09-24T10:11:06.642Z,21.07
2017-09-24T10:12:06.647Z,21.16
2017-09-24T10:13:06.635Z,21.07
2017-09-24T10:14:06.631Z,21.09
2017-09-24T10:15:07.059Z,21.09
2017-09-24T10:16:06.620Z,21.13
2017-09-24T10:17:06.614Z,21.10
2017-09-24T10:18:06.609Z,21.10
2017-09-24T10:19:06.602Z,21.17
2017-09-24T10:20:06.603Z,21.09
2017-09-24T10:21:06.626Z,21.12
2017-09-24T10:22:06.589Z,21.06
2017-09-24T10:23:07.023Z,21.10
2017-09-24T10:24:06.577Z,21.12
2017-09-24T10:25:06.577Z,21.16
2017-09-24T10:26:06.567Z,21.17
2017-09-24T10:27:06.561Z,21.16
2017-09-24T10:28:06.555Z,21.16
2017-09-24T10:29:07.003Z,21.14
2017-09-24T10:30:06.543Z,21.17
2017-09-24T10:31:06.539Z,21.13
2017-09-24T10:32:06.538Z,21.12
2017-09-24T10:33:06.534Z,21.17
2017-09-24T10:34:06.529Z,21.13
2017-09-24T10:35:06.831Z,21.19
2017-09-24T10:36:06.521Z,21.17
2017-09-24T10:37:06.515Z,21.17
2017-09-24T10:38:06.506Z,21.16
2017-09-24T10:39:06.505Z,21.14
2017-09-24T10:40:06.495Z,21.14
2017-09-24T10:41:06.793Z,21.16
2017-09-24T10:42:06.489Z,21.14
2017-09-24T10:43:06.480Z,21.14
2017-09-24T10:44:06.482Z,21.14
2017-09-24T10:45:06.472Z,21.19
2017-09-24T10:46:06.465Z,21.14
2017-09-24T10:47:06.767Z,21.21
2017-09-24T10:48:06.451Z,21.16
2017-09-24T10:49:06.456Z,21.25
2017-09-24T10:50:06.439Z,21.19
2017-09-24T10:51:06.441Z,21.16
2017-09-24T10:52:06.430Z,21.19
2017-09-24T10:53:06.725Z,21.21
2017-09-24T10:54:06.423Z,21.14
2017-09-24T10:55:06.420Z,21.16
2017-09-24T10:56:06.416Z,21.24
2017-09-24T10:57:06.402Z,21.25
2017-09-24T10:58:06.401Z,21.27
2017-09-24T10:59:06.418Z,21.19
2017-09-24T11:00:06.392Z,21.16
2017-09-24T11:01:06.391Z,21.17
2017-09-24T11:02:06.381Z,21.17
2017-09-24T11:03:06.379Z,21.21
2017-09-24T11:04:06.821Z,21.22
2017-09-24T11:05:06.365Z,21.29
2017-09-24T11:06:06.364Z,21.22
2017-09-24T11:07:06.352Z,21.31
2017-09-24T11:08:06.350Z,21.21
2017-09-24T11:09:06.349Z,21.29
2017-09-24T11:10:06.716Z,21.29
2017-09-24T11:11:06.336Z,21.21
2017-09-24T11:12:06.337Z,21.27
2017-09-24T11:13:06.322Z,21.24
2017-09-24T11:14:06.319Z,21.17
2017-09-24T11:15:27.347Z,21.25
2017-09-24T11:16:06.316Z,21.28
2017-09-24T11:17:06.301Z,21.28
2017-09-24T11:18:06.296Z,21.25
2017-09-24T11:19:06.295Z,21.27
2017-09-24T11:20:06.292Z,21.28
2017-09-24T11:21:06.752Z,21.22
2017-09-24T11:22:06.281Z,21.22
2017-09-24T11:23:06.277Z,21.29
2017-09-24T11:24:06.271Z,21.13
2017-09-24T11:25:06.261Z,21.17
2017-09-24T11:26:06.255Z,21.21
2017-09-24T11:27:06.478Z,21.24
2017-09-24T11:28:06.245Z,21.28
2017-09-24T11:29:06.242Z,21.24
2017-09-24T11:30:06.234Z,21.28
2017-09-24T11:31:06.230Z,21.24
2017-09-24T11:32:06.232Z,21.21
2017-09-24T11:33:06.252Z,21.31
2017-09-24T11:34:06.213Z,21.24
2017-09-24T11:35:06.215Z,21.22
2017-09-24T11:36:06.202Z,21.21
2017-09-24T11:37:06.200Z,21.17
2017-09-24T11:38:06.221Z,21.29
2017-09-24T11:39:06.194Z,21.17
2017-09-24T11:40:06.180Z,21.25
2017-09-24T11:41:06.186Z,21.16
2017-09-24T11:42:06.175Z,21.22
2017-09-24T11:43:06.565Z,21.27
2017-09-24T11:44:06.165Z,21.16
2017-09-24T11:45:06.160Z,21.21
2017-09-24T11:46:06.154Z,21.27
2017-09-24T11:47:06.154Z,21.21
2017-09-24T11:48:06.141Z,21.17
2017-09-24T11:49:06.441Z,21.22
2017-09-24T11:50:06.129Z,21.19
2017-09-24T11:51:06.129Z,21.19
2017-09-24T11:52:06.123Z,21.17
2017-09-24T11:53:06.114Z,21.17
2017-09-24T11:54:06.114Z,21.16
2017-09-24T11:55:06.129Z,21.16
2017-09-24T11:56:06.103Z,21.19
2017-09-24T11:57:06.095Z,21.17
2017-09-24T11:58:06.092Z,21.17
2017-09-24T11:59:06.472Z,21.19
2017-09-24T12:00:06.088Z,21.21
2017-09-24T12:01:06.078Z,21.25
2017-09-24T12:02:06.080Z,21.13
2017-09-24T12:03:06.069Z,21.19
2017-09-24T12:04:06.064Z,21.19
2017-09-24T12:05:06.084Z,21.19
2017-09-24T12:06:06.052Z,21.19
2017-09-24T12:07:06.046Z,21.19
2017-09-24T12:08:06.044Z,21.17
2017-09-24T12:09:06.035Z,21.17
2017-09-24T12:10:06.328Z,21.17
2017-09-24T12:11:06.026Z,21.13
2017-09-24T12:12:06.021Z,21.16
2017-09-24T12:13:06.010Z,21.16
2017-09-24T12:14:06.018Z,21.16
2017-09-24T12:15:06.000Z,21.14
2017-09-24T12:16:06.033Z,21.22
2017-09-24T12:17:05.991Z,21.14
2017-09-24T12:18:05.997Z,21.14
2017-09-24T12:19:05.984Z,21.21
2017-09-24T12:20:06.007Z,21.19
2017-09-24T12:21:05.993Z,21.19
2017-09-24T12:22:05.965Z,21.14
2017-09-24T12:23:05.965Z,21.16
2017-09-24T12:24:05.957Z,21.17
2017-09-24T12:25:05.954Z,21.16
2017-09-24T12:26:05.972Z,21.12
2017-09-24T12:27:05.943Z,21.17
2017-09-24T12:28:05.933Z,21.16
2017-09-24T12:29:05.931Z,21.13
2017-09-24T12:30:05.929Z,21.19
2017-09-24T12:31:05.948Z,21.13
2017-09-24T12:32:05.923Z,21.17
2017-09-24T12:33:05.912Z,21.16
2017-09-24T12:34:05.907Z,21.22
2017-09-24T12:35:05.903Z,21.24
2017-09-24T12:36:05.921Z,21.19
2017-09-24T12:37:05.888Z,21.16
2017-09-24T12:38:05.908Z,21.17
2017-09-24T12:39:05.881Z,21.16
2017-09-24T12:40:05.873Z,21.19
2017-09-24T12:41:06.259Z,21.19
2017-09-24T12:42:05.867Z,21.14
2017-09-24T12:43:05.862Z,21.19
2017-09-24T12:44:05.853Z,21.19
2017-09-24T12:45:05.845Z,21.16
2017-09-24T12:46:05.846Z,21.16
2017-09-24T12:47:06.244Z,21.19
2017-09-24T12:48:05.832Z,21.25
2017-09-24T12:49:05.827Z,21.21
2017-09-24T12:50:05.825Z,21.19
2017-09-24T12:51:05.817Z,21.19
2017-09-24T12:52:05.811Z,21.19